createdAt,value
2022-10-18T00:01:00.787Z,16.33
2022-10-18T00:03:39.439Z,16.30
2022-10-18T00:06:09.294Z,16.26
2022-10-18T00:08:38.820Z,16.21
2022-10-18T00:11:06.636Z,16.18
2022-10-18T00:13:34.427Z,16.14
2022-10-18T00:16:05.001Z,16.10
2022-10-18T00:18:32.869Z,16.06
2022-10-18T00:21:06.771Z,17.00
2022-10-18T00:23:35.414Z,19.84
2022-10-18T00:26:08.635Z,20.69
2022-10-18T00:28:36.822Z,19.72
2022-10-18T00:31:17.880Z,18.81
2022-10-18T00:33:47.084Z,18.10
2022-10-18T00:36:14.750Z,17.65
2022-10-18T00:38:43.122Z,17.31
2022-10-18T00:41:14.404Z,17.03
2022-10-18T00:44:10.229Z,16.78
2022-10-18T00:46:43.786Z,16.53
2022-10-18T00:49:15.495Z,16.31
2022-10-18T00:51:46.801Z,16.14
2022-10-18T00:54:16.361Z,15.99
2022-10-18T00:56:44.913Z,15.87
2022-10-18T00:59:15.743Z,15.75
2022-10-18T01:01:43.891Z,15.64
2022-10-18T01:04:13.846Z,15.55
2022-10-18T01:07:18.246Z,15.47
2022-10-18T01:10:00.612Z,17.12
2022-10-18T01:12:34.202Z,19.91
2022-10-18T01:15:20.293Z,20.55
2022-10-18T01:18:12.210Z,19.29
2022-10-18T01:20:54.885Z,18.14
2022-10-18T01:23:47.402Z,17.43
2022-10-18T01:26:33.434Z,16.92
2022-10-18T01:29:29.976Z,16.54
2022-10-18T01:32:01.739Z,16.23
2022-10-18T01:34:33.975Z,16.01
2022-10-18T01:37:04.912Z,15.82
2022-10-18T01:39:36.756Z,15.67
2022-10-18T01:42:10.409Z,15.53
2022-10-18T01:44:40.967Z,15.41
2022-10-18T01:47:12.326Z,15.32
2022-10-18T01:49:39.879Z,15.23
2022-10-18T01:52:16.123Z,15.14
2022-10-18T01:54:49.089Z,15.07
2022-10-18T01:57:34.753Z,16.19
2022-10-18T02:00:16.339Z,19.20
2022-10-18T02:02:49.804Z,19.85
2022-10-18T02:05:40.318Z,18.75
2022-10-18T02:08:31.119Z,17.70
2022-10-18T02:11:10.706Z,17.01
2022-10-18T02:13:57.973Z,16.58
2022-10-18T02:16:34.664Z,16.24
2022-10-18T02:19:15.786Z,15.97
2022-10-18T02:21:45.511Z,15.71
2022-10-18T02:24:15.281Z,15.52
2022-10-18T02:26:43.414Z,15.36
2022-10-18T02:29:11.452Z,15.23
2022-10-18T02:31:48.661Z,15.10
2022-10-18T02:34:23.852Z,14.99
2022-10-18T02:36:55.040Z,14.89
2022-10-18T02:39:30.413Z,14.83
2022-10-18T02:41:59.541Z,14.78
2022-10-18T02:44:27.122Z,15.82
2022-10-18T02:46:54.703Z,18.82
2022-10-18T02:49:22.480Z,19.91
2022-10-18T02:51:49.962Z,18.96
2022-10-18T02:54:17.441Z,17.94
2022-10-18T02:56:45.065Z,17.26
2022-10-18T02:59:12.814Z,16.78
2022-10-18T03:01:40.516Z,16.44
2022-10-18T03:04:08.413Z,16.17
2022-10-18T03:06:35.936Z,15.95
2022-10-18T03:09:05.095Z,15.75
2022-10-18T03:11:33.337Z,15.58
2022-10-18T03:14:00.878Z,15.43
2022-10-18T03:16:28.798Z,15.29
2022-10-18T03:18:56.285Z,15.18
2022-10-18T03:21:23.895Z,15.08
2022-10-18T03:23:51.460Z,14.98
2022-10-18T03:26:19.029Z,14.91
2022-10-18T03:28:46.599Z,14.84
2022-10-18T03:31:14.167Z,14.76
2022-10-18T03:33:41.736Z,14.69
2022-10-18T03:36:12.148Z,14.64
2022-10-18T03:38:39.675Z,14.57
2022-10-18T03:41:07.192Z,15.56
2022-10-18T03:43:34.864Z,18.45
2022-10-18T03:46:02.442Z,19.51
2022-10-18T03:48:29.989Z,18.52
2022-10-18T03:50:57.552Z,17.52
2022-10-18T03:53:25.183Z,16.82
2022-10-18T03:55:54.277Z,16.32
2022-10-18T03:58:22.805Z,15.96
2022-10-18T04:00:51.955Z,15.66
2022-10-18T04:03:21.312Z,15.40
2022-10-18T04:05:49.740Z,15.19
2022-10-18T04:08:18.354Z,14.99
2022-10-18T04:10:46.465Z,14.83
2022-10-18T04:13:14.175Z,14.70
2022-10-18T04:15:41.813Z,14.58
2022-10-18T04:18:09.515Z,14.47
2022-10-18T04:20:37.124Z,14.38
2022-10-18T04:23:04.684Z,15.14
2022-10-18T04:25:32.348Z,17.72
2022-10-18T04:27:59.894Z,19.07
2022-10-18T04:30:27.425Z,18.21
2022-10-18T04:32:54.950Z,17.22
2022-10-18T04:35:24.587Z,16.51
2022-10-18T04:37:52.238Z,15.99
2022-10-18T04:40:20.100Z,15.61
2022-10-18T04:42:47.792Z,15.32
2022-10-18T04:45:15.393Z,15.08
2022-10-18T04:47:42.904Z,14.87
2022-10-18T04:50:10.478Z,14.70
2022-10-18T04:52:38.149Z,14.57
2022-10-18T04:55:06.297Z,14.42
2022-10-18T04:57:34.239Z,14.30
2022-10-18T05:00:02.212Z,15.17
2022-10-18T05:02:30.228Z,17.97
2022-10-18T05:04:58.131Z,19.15
2022-10-18T05:07:25.729Z,18.16
2022-10-18T05:09:53.324Z,17.14
2022-10-18T05:12:20.905Z,16.43
2022-10-18T05:14:48.736Z,15.92
2022-10-18T05:17:16.686Z,15.56
2022-10-18T05:19:44.202Z,15.27
2022-10-18T05:22:11.782Z,15.03
2022-10-18T05:24:39.339Z,14.83
2022-10-18T05:27:06.987Z,14.66
2022-10-18T05:29:34.566Z,14.51
2022-10-18T05:32:02.138Z,14.38
2022-10-18T05:34:32.037Z,14.26
2022-10-18T05:36:59.918Z,15.23
2022-10-18T05:39:27.552Z,17.91
2022-10-18T05:41:55.134Z,19.14
2022-10-18T05:44:22.629Z,18.21
2022-10-18T05:46:50.148Z,17.22
2022-10-18T05:49:17.883Z,16.54
2022-10-18T05:51:45.436Z,16.08
2022-10-18T05:54:13.547Z,15.76
2022-10-18T05:56:41.233Z,15.52
2022-10-18T05:59:12.494Z,15.33
2022-10-18T06:01:42.185Z,15.19
2022-10-18T06:04:10.306Z,15.07
2022-10-18T06:06:38.951Z,14.98
2022-10-18T06:09:08.525Z,14.91
2022-10-18T06:11:37.026Z,15.75
2022-10-18T06:14:05.142Z,18.42
2022-10-18T06:16:33.027Z,19.59
2022-10-18T06:19:00.686Z,18.81
2022-10-18T06:21:28.277Z,17.98
2022-10-18T06:23:58.015Z,17.45
2022-10-18T06:26:27.326Z,17.11
2022-10-18T06:28:55.093Z,16.89
2022-10-18T06:31:23.100Z,16.72
2022-10-18T06:33:50.836Z,16.60
2022-10-18T06:36:23.945Z,16.52
2022-10-18T06:38:52.529Z,16.47
2022-10-18T06:41:20.487Z,16.44
2022-10-18T06:43:53.773Z,16.40
2022-10-18T06:46:21.340Z,16.36
2022-10-18T06:48:49.078Z,16.35
2022-10-18T06:51:18.224Z,16.34
2022-10-18T06:53:59.214Z,16.35
2022-10-18T06:56:33.851Z,16.40
2022-10-18T06:59:02.129Z,16.46
2022-10-18T07:01:30.046Z,16.55
2022-10-18T07:03:57.678Z,16.64
2022-10-18T07:06:25.566Z,16.75
2022-10-18T07:08:54.096Z,16.83
2022-10-18T07:11:25.105Z,16.90
2022-10-18T07:14:00.837Z,16.99
2022-10-18T07:16:29.226Z,17.10
2022-10-18T07:18:57.313Z,17.19
2022-10-18T07:21:26.622Z,17.27
2022-10-18T07:23:56.203Z,17.35
2022-10-18T07:26:29.041Z,17.40
2022-10-18T07:29:00.490Z,17.45
2022-10-18T07:31:29.048Z,17.48
2022-10-18T07:33:56.647Z,17.53
2022-10-18T07:36:25.538Z,17.57
2022-10-18T07:38:53.222Z,17.60
2022-10-18T07:41:21.636Z,17.65
2022-10-18T07:43:51.306Z,17.75
2022-10-18T07:46:20.776Z,17.87
2022-10-18T07:48:48.793Z,18.00
2022-10-18T07:51:17.950Z,18.19
2022-10-18T07:53:46.012Z,18.40
2022-10-18T07:56:16.469Z,18.62
2022-10-18T07:58:45.442Z,18.84
2022-10-18T08:01:14.418Z,19.07
2022-10-18T08:03:42.927Z,19.36
2022-10-18T08:06:12.946Z,19.66
2022-10-18T08:08:41.197Z,19.91
2022-10-18T08:11:17.638Z,20.15
2022-10-18T08:13:45.410Z,20.40
2022-10-18T08:16:16.619Z,20.67
2022-10-18T08:18:44.277Z,20.95
2022-10-18T08:21:12.935Z,21.23
2022-10-18T08:23:40.949Z,21.48
2022-10-18T08:26:14.055Z,21.70
2022-10-18T08:28:49.156Z,21.89
2022-10-18T08:31:26.046Z,22.07
2022-10-18T08:33:56.912Z,22.17
2022-10-18T08:36:24.811Z,22.25
2022-10-18T08:38:52.448Z,22.32
2022-10-18T08:41:49.564Z,22.30
2022-10-18T08:44:28.465Z,22.26
2022-10-18T08:47:02.632Z,22.38
2022-10-18T08:49:41.778Z,22.57
2022-10-18T08:52:58.407Z,22.79
2022-10-18T08:55:53.002Z,22.95
2022-10-18T08:58:26.687Z,23.06
2022-10-18T09:01:23.392Z,23.21
2022-10-18T09:03:56.787Z,23.41
2022-10-18T09:06:35.947Z,23.65
2022-10-18T09:09:21.235Z,23.87
2022-10-18T09:12:07.164Z,24.00
2022-10-18T09:14:49.697Z,24.08
2022-10-18T09:17:58.875Z,24.17
2022-10-18T09:20:45.259Z,24.34
2022-10-18T09:23:20.419Z,24.42
2022-10-18T09:25:53.822Z,24.38
2022-10-18T09:28:57.332Z,24.32
2022-10-18T09:31:30.883Z,24.38
2022-10-18T09:34:05.848Z,24.59
2022-10-18T09:36:35.648Z,24.88
2022-10-18T09:39:13.517Z,24.99
2022-10-18T09:41:47.505Z,25.09
2022-10-18T09:44:36.149Z,25.34
2022-10-18T09:47:16.488Z,25.67
2022-10-18T09:49:49.445Z,25.98
2022-10-18T09:52:26.669Z,26.09
2022-10-18T09:54:58.145Z,25.93
2022-10-18T09:57:38.230Z,25.68
2022-10-18T10:00:17.067Z,25.39
2022-10-18T10:02:44.713Z,25.14
2022-10-18T10:05:14.370Z,25.04
2022-10-18T10:07:44.993Z,25.12
2022-10-18T10:10:20.114Z,25.25
2022-10-18T10:12:49.046Z,25.36
2022-10-18T10:15:29.561Z,25.42
2022-10-18T10:18:04.939Z,25.44
2022-10-18T10:20:45.728Z,25.49
2022-10-18T10:23:20.506Z,25.71
2022-10-18T10:26:01.354Z,25.89
2022-10-18T10:28:35.019Z,26.03
2022-10-18T10:31:38.030Z,26.13
2022-10-18T10:34:06.807Z,26.19
2022-10-18T10:36:35.148Z,26.23
2022-10-18T10:39:18.631Z,26.37
2022-10-18T10:41:48.965Z,26.45
2022-10-18T10:44:19.662Z,26.44
2022-10-18T10:46:49.689Z,26.50
2022-10-18T10:52:26.875Z,26.71
2022-10-18T10:57:48.406Z,26.78
2022-10-18T11:00:34.201Z,26.77
2022-10-18T11:03:31.215Z,26.78
2022-10-18T11:06:00.975Z,26.78
2022-10-18T11:08:35.892Z,26.68
2022-10-18T11:11:28.400Z,26.48
2022-10-18T11:14:26.168Z,26.21
2022-10-18T11:17:07.903Z,25.98
2022-10-18T11:20:07.355Z,25.83
2022-10-18T11:23:03.612Z,25.71
2022-10-18T11:25:46.250Z,25.67
2022-10-18T11:28:36.074Z,25.66
2022-10-18T11:31:31.770Z,25.59
2022-10-18T11:34:27.217Z,25.44
2022-10-18T11:37:32.328Z,25.23
2022-10-18T11:40:29.671Z,25.07
2022-10-18T11:43:15.342Z,24.82
2022-10-18T11:46:06.966Z,24.53
2022-10-18T11:49:25.809Z,24.22
2022-10-18T11:52:35.267Z,23.97
2022-10-18T11:55:28.899Z,23.80
2022-10-18T11:58:06.857Z,23.68
2022-10-18T12:00:50.409Z,23.56
2022-10-18T12:03:52.957Z,23.46
2022-10-18T12:06:34.060Z,23.43
2022-10-18T12:09:08.189Z,23.39
2022-10-18T12:11:46.977Z,23.28
2022-10-18T12:14:38.144Z,23.14
2022-10-18T12:17:42.804Z,23.02
2022-10-18T12:20:23.180Z,22.89
2022-10-18T12:23:01.250Z,22.74
2022-10-18T12:25:32.421Z,22.58
2022-10-18T12:28:16.259Z,22.44
2022-10-18T12:31:07.092Z,22.30
2022-10-18T12:33:40.068Z,22.20
2022-10-18T12:36:35.104Z,22.12
2022-10-18T12:39:06.906Z,22.03
2022-10-18T12:41:35.851Z,21.95
2022-10-18T12:44:05.866Z,21.89
2022-10-18T12:46:47.211Z,21.84
2022-10-18T12:49:17.372Z,21.79
2022-10-18T12:51:59.385Z,21.75
2022-10-18T12:54:32.861Z,21.72
2022-10-18T12:57:02.356Z,21.69
2022-10-18T12:59:30.033Z,21.66
2022-10-18T13:02:00.609Z,21.62
2022-10-18T13:04:28.222Z,21.56
2022-10-18T13:06:59.355Z,21.48
2022-10-18T13:09:29.747Z,21.40
2022-10-18T13:12:09.664Z,21.37
2022-10-18T13:15:07.325Z,21.34
2022-10-18T13:17:58.045Z,21.28
2022-10-18T13:20:58.016Z,21.22
2022-10-18T13:23:38.272Z,21.15
2022-10-18T13:26:14.960Z,21.08
2022-10-18T13:28:54.534Z,21.04
2022-10-18T13:32:19.242Z,21.00
2022-10-18T13:34:46.892Z,20.95
2022-10-18T13:37:15.540Z,20.92
2022-10-18T13:39:43.469Z,20.89
2022-10-18T13:42:13.895Z,20.87
2022-10-18T13:44:44.738Z,20.87
2022-10-18T13:47:15.377Z,20.87
2022-10-18T13:50:12.291Z,20.86
2022-10-18T13:53:01.575Z,20.87
2022-10-18T13:55:38.210Z,20.86
2022-10-18T13:58:34.876Z,20.84
2022-10-18T14:01:23.267Z,20.83
2022-10-18T14:04:29.961Z,20.81
2022-10-18T14:07:03.725Z,20.76
2022-10-18T14:09:44.775Z,20.71
2022-10-18T14:12:37.804Z,20.63
2022-10-18T14:15:16.851Z,20.55
2022-10-18T14:17:56.764Z,20.48
2022-10-18T14:20:49.482Z,20.41
2022-10-18T14:23:29.799Z,20.34
2022-10-18T14:26:14.958Z,20.26
2022-10-18T14:29:00.252Z,20.18
2022-10-18T14:31:28.307Z,20.11
2022-10-18T14:33:58.573Z,20.06
2022-10-18T14:36:41.089Z,20.00
2022-10-18T14:39:22.571Z,19.92
2022-10-18T14:41:51.537Z,19.85
2022-10-18T14:44:24.453Z,19.77
2022-10-18T14:47:24.739Z,19.69
2022-10-18T14:49:57.891Z,19.57
2022-10-18T14:52:35.087Z,19.49
2022-10-18T14:55:03.478Z,19.40
2022-10-18T14:57:37.382Z,19.33
2022-10-18T15:00:09.405Z,19.24
2022-10-18T15:02:38.866Z,19.17
2022-10-18T15:05:17.288Z,19.11
2022-10-18T15:07:45.406Z,19.05
2022-10-18T15:10:25.434Z,19.00
2022-10-18T15:13:10.485Z,18.94
2022-10-18T15:15:39.935Z,18.90
2022-10-18T15:18:22.788Z,18.86
2022-10-18T15:21:23.277Z,18.81
2022-10-18T15:23:51.954Z,18.76
2022-10-18T15:26:26.706Z,18.72
2022-10-18T15:28:56.589Z,19.79
2022-10-18T15:31:28.830Z,22.28
2022-10-18T15:34:26.089Z,23.20
2022-10-18T15:36:57.145Z,22.12
2022-10-18T15:39:27.754Z,21.29
2022-10-18T15:41:56.304Z,20.73
2022-10-18T15:44:31.845Z,20.33
2022-10-18T15:47:20.952Z,19.97
2022-10-18T15:49:51.072Z,19.62
2022-10-18T15:52:21.333Z,19.31
2022-10-18T15:57:24.018Z,21.18
2022-10-18T16:00:00.598Z,22.67
2022-10-18T16:02:28.681Z,21.83
2022-10-18T16:05:03.015Z,20.48
2022-10-18T16:07:31.091Z,19.38
2022-10-18T16:09:58.853Z,20.13
2022-10-18T16:12:26.626Z,21.71
2022-10-18T16:14:54.278Z,21.77
2022-10-18T16:17:21.923Z,20.19
2022-10-18T16:19:49.550Z,19.13
2022-10-18T16:22:17.282Z,20.44
2022-10-18T16:24:44.922Z,21.36
2022-10-18T16:27:14.592Z,20.32
2022-10-18T16:29:42.251Z,18.98
2022-10-18T16:32:09.778Z,19.17
2022-10-18T16:34:37.527Z,21.05
2022-10-18T16:37:05.151Z,22.03
2022-10-18T16:39:34.916Z,21.48
2022-10-18T16:42:02.765Z,20.03
2022-10-18T16:44:30.505Z,18.76
2022-10-18T16:46:58.017Z,18.88
2022-10-18T16:49:26.750Z,20.67
2022-10-18T16:51:55.280Z,21.21
2022-10-18T16:54:23.559Z,20.07
2022-10-18T16:56:51.589Z,18.81
2022-10-18T16:59:26.299Z,18.89
2022-10-18T17:01:54.101Z,20.69
2022-10-18T17:04:22.814Z,21.39
2022-10-18T17:06:54.274Z,20.99
2022-10-18T17:09:21.888Z,19.56
2022-10-18T17:11:49.804Z,18.40
2022-10-18T17:14:17.349Z,19.12
2022-10-18T17:16:47.074Z,20.99
2022-10-18T17:19:18.310Z,21.81
2022-10-18T17:21:45.887Z,21.35
2022-10-18T17:24:13.586Z,19.76
2022-10-18T17:26:41.122Z,18.44
2022-10-18T17:29:09.011Z,19.10
2022-10-18T17:31:36.914Z,20.75
2022-10-18T17:34:05.114Z,21.48
2022-10-18T17:36:33.885Z,21.12
2022-10-18T17:39:02.347Z,19.55
2022-10-18T17:41:30.580Z,19.34
2022-10-18T17:43:58.217Z,20.75
2022-10-18T17:46:26.050Z,20.60
2022-10-18T17:48:53.697Z,19.11
2022-10-18T17:51:22.013Z,19.42
2022-10-18T17:53:49.982Z,20.51
2022-10-18T17:56:17.490Z,20.34
2022-10-18T17:58:46.791Z,18.83
2022-10-18T18:01:18.729Z,17.88
2022-10-18T18:03:49.934Z,19.19
2022-10-18T18:06:21.125Z,20.28
2022-10-18T18:08:49.918Z,20.03
2022-10-18T18:11:17.878Z,18.61
2022-10-18T18:13:45.524Z,17.43
2022-10-18T18:16:14.067Z,17.84
2022-10-18T18:18:42.597Z,19.68
2022-10-18T18:21:10.496Z,20.53
2022-10-18T18:23:38.177Z,20.97
2022-10-18T18:26:06.131Z,20.19
2022-10-18T18:28:35.966Z,18.73
2022-10-18T18:31:19.500Z,17.52
2022-10-18T18:33:47.100Z,18.01
2022-10-18T18:36:14.797Z,19.72
2022-10-18T18:38:45.342Z,20.61
2022-10-18T18:41:18.732Z,21.23
2022-10-18T18:43:51.296Z,20.55
2022-10-18T18:46:18.931Z,19.08
2022-10-18T18:48:46.500Z,17.94
2022-10-18T18:51:16.770Z,18.03
2022-10-18T18:53:45.817Z,19.96
2022-10-18T18:56:17.490Z,21.00
2022-10-18T18:58:46.399Z,20.82
2022-10-18T19:01:17.447Z,19.34
2022-10-18T19:03:47.517Z,18.03
2022-10-18T19:06:18.781Z,17.10
2022-10-18T19:08:48.504Z,17.61
2022-10-18T19:11:22.466Z,19.55
2022-10-18T19:13:50.315Z,20.69
2022-10-18T19:16:31.960Z,21.19
2022-10-18T19:19:07.042Z,20.21
2022-10-18T19:21:46.538Z,18.69
2022-10-18T19:24:14.167Z,17.52
2022-10-18T19:26:45.390Z,17.68
2022-10-18T19:29:21.265Z,19.70
2022-10-18T19:31:50.248Z,20.76
2022-10-18T19:34:19.523Z,21.03
2022-10-18T19:36:48.783Z,19.86
2022-10-18T19:39:20.828Z,18.49
2022-10-18T19:41:50.654Z,17.40
2022-10-18T19:44:20.126Z,17.68
2022-10-18T19:46:48.663Z,19.80
2022-10-18T19:49:16.827Z,20.98
2022-10-18T19:51:44.813Z,21.05
2022-10-18T19:54:15.116Z,19.65
2022-10-18T19:56:43.090Z,18.32
2022-10-18T19:59:12.212Z,17.36
2022-10-18T20:01:39.953Z,17.84
2022-10-18T20:04:09.448Z,19.92
2022-10-18T20:06:38.407Z,21.16
2022-10-18T20:09:07.833Z,21.14
2022-10-18T20:11:37.135Z,19.69
2022-10-18T20:14:09.517Z,18.33
2022-10-18T20:16:37.720Z,17.34
2022-10-18T20:19:07.534Z,17.80
2022-10-18T20:21:36.412Z,19.99
2022-10-18T20:24:05.703Z,21.22
2022-10-18T20:26:33.716Z,20.72
2022-10-18T20:29:01.634Z,19.36
2022-10-18T20:31:31.257Z,18.24
2022-10-18T20:34:02.534Z,18.46
2022-10-18T20:36:31.828Z,20.52
2022-10-18T20:38:59.415Z,21.55
2022-10-18T20:41:30.947Z,20.59
2022-10-18T20:44:01.370Z,19.22
2022-10-18T20:46:33.943Z,18.15
2022-10-18T20:49:02.053Z,18.54
2022-10-18T20:51:29.942Z,20.71
2022-10-18T20:53:57.683Z,21.32
2022-10-18T20:56:28.907Z,20.03
2022-10-18T20:58:58.169Z,18.72
2022-10-18T21:01:28.643Z,17.77
2022-10-18T21:03:58.168Z,18.25
2022-10-18T21:06:31.247Z,20.39
2022-10-18T21:09:01.423Z,21.53
2022-10-18T21:11:31.724Z,20.88
2022-10-18T21:14:02.610Z,19.42
2022-10-18T21:16:31.908Z,18.22
2022-10-18T21:19:06.726Z,18.45
2022-10-18T21:21:35.113Z,20.48
2022-10-18T21:24:06.946Z,21.35
2022-10-18T21:26:36.345Z,20.29
2022-10-18T21:29:05.324Z,18.93
2022-10-18T21:31:35.391Z,17.87
2022-10-18T21:34:18.023Z,18.17
2022-10-18T21:36:47.471Z,20.30
2022-10-18T21:39:18.058Z,21.31
2022-10-18T21:41:46.229Z,21.09
2022-10-18T21:44:15.372Z,19.61
2022-10-18T21:46:43.160Z,18.27
2022-10-18T21:49:11.758Z,18.34
2022-10-18T21:51:40.063Z,20.26
2022-10-18T21:54:12.014Z,21.31
2022-10-18T21:56:39.970Z,21.22
2022-10-18T21:59:07.746Z,19.78
2022-10-18T22:01:37.232Z,18.47
2022-10-18T22:04:07.705Z,17.49
2022-10-18T22:06:36.379Z,17.79
2022-10-18T22:09:08.196Z,19.82
2022-10-18T22:11:40.294Z,21.04
2022-10-18T22:14:08.137Z,21.21
2022-10-18T22:16:35.998Z,19.91
2022-10-18T22:24:24.750Z,17.35
2022-10-18T22:26:52.380Z,19.42
2022-10-18T22:29:21.269Z,20.63
2022-10-18T22:31:53.805Z,21.21
2022-10-18T22:34:29.085Z,21.00
2022-10-18T22:36:57.041Z,19.53
2022-10-18T22:39:25.249Z,18.26
2022-10-18T22:41:55.912Z,17.33
2022-10-18T22:44:24.364Z,17.56
2022-10-18T22:46:51.922Z,19.58
2022-10-18T22:49:19.413Z,20.65
2022-10-18T22:51:46.966Z,20.63
2022-10-18T22:54:14.749Z,19.23
2022-10-18T22:56:42.320Z,17.90
2022-10-18T22:59:09.841Z,17.06
2022-10-18T23:01:37.838Z,18.32
2022-10-18T23:04:05.363Z,19.87
2022-10-18T23:06:35.800Z,20.40
2022-10-18T23:09:06.327Z,19.28
2022-10-18T23:11:35.322Z,17.86
2022-10-18T23:14:05.046Z,16.83
2022-10-18T23:16:32.648Z,17.16
2022-10-18T23:19:00.220Z,19.16
2022-10-18T23:21:28.771Z,20.14
2022-10-18T23:23:57.007Z,20.17
2022-10-18T23:26:27.028Z,18.88
2022-10-18T23:28:55.127Z,17.68
2022-10-18T23:31:28.625Z,16.79
2022-10-18T23:33:58.566Z,17.20
2022-10-18T23:36:27.254Z,19.21
2022-10-18T23:38:55.423Z,20.08
2022-10-18T23:41:23.364Z,20.08
2022-10-18T23:43:51.209Z,18.73
2022-10-18T23:46:19.403Z,17.42
2022-10-18T23:48:48.193Z,16.57
2022-10-18T23:51:17.661Z,17.93
2022-10-18T23:53:45.559Z,19.53
2022-10-18T23:56:15.639Z,20.21
2022-10-18T23:58:44.380Z,19.79
